Time;durP1;ratioP1;P1;durP2;ratioP2;P2;SDS_P1;SDS_P2;PMS_P1;PMS_P2;Temp;Humidity;BMP_temperature;BMP_pressure;BME280_temperature;BME280_humidity;BME280_pressure;Samples;Min_cycle;Max_cycle;Signal;HPM_P1;HPM_P2
2023/05/13 00:00:48;;;;;;;8.48;5.40;;;8.80;99.90;;;;;;5006230;28;20046;-68
2023/05/13 00:03:15;;;;;;;7.78;5.13;;;8.80;99.90;;;;;;4991223;28;20081;-69
2023/05/13 00:05:44;;;;;;;7.07;4.72;;;8.80;99.90;;;;;;4974992;28;20129;-68
2023/05/13 00:08:12;;;;;;;6.25;4.75;;;8.80;99.90;;;;;;4992160;28;20046;-69
2023/05/13 00:10:39;;;;;;;6.93;4.70;;;8.80;99.90;;;;;;4975429;28;20400;-71
2023/05/13 00:13:07;;;;;;;8.13;4.53;;;8.80;99.90;;;;;;4990896;28;20410;-70
2023/05/13 00:15:34;;;;;;;6.60;4.18;;;8.80;99.90;;;;;;4989383;28;20521;-70
2023/05/13 00:18:02;;;;;;;9.63;4.95;;;8.80;99.90;;;;;;4997064;28;20058;-70
2023/05/13 00:20:30;;;;;;;7.10;4.40;;;8.90;99.90;;;;;;4982987;28;20137;-69
2023/05/13 00:22:57;;;;;;;6.65;4.90;;;8.80;99.90;;;;;;4997207;28;20046;-68
2023/05/13 00:25:24;;;;;;;6.30;4.60;;;8.80;99.90;;;;;;4994756;28;20528;-68
2023/05/13 00:27:52;;;;;;;6.95;4.53;;;8.80;99.90;;;;;;4994816;28;20050;-69
2023/05/13 00:30:19;;;;;;;7.88;4.85;;;8.80;99.90;;;;;;5001395;28;20464;-68
2023/05/13 00:32:47;;;;;;;8.05;4.40;;;8.80;99.90;;;;;;5011072;28;20145;-69
2023/05/13 00:35:15;;;;;;;8.00;4.90;;;8.80;99.90;;;;;;5002773;28;20053;-70
2023/05/13 00:37:43;;;;;;;7.88;5.15;;;8.80;99.90;;;;;;4992818;28;20097;-70
2023/05/13 00:40:19;;;;;;;6.93;4.85;;;8.80;99.90;;;;;;4997894;28;20042;-70
2023/05/13 00:42:47;;;;;;;7.35;4.78;;;8.70;99.90;;;;;;4993091;28;20130;-70
2023/05/13 00:45:15;;;;;;;6.82;4.38;;;8.70;99.90;;;;;;4991336;28;20056;-69
2023/05/13 00:47:43;;;;;;;9.07;5.57;;;8.70;99.90;;;;;;4999348;28;20050;-70
2023/05/13 00:50:12;;;;;;;8.52;5.45;;;8.70;99.90;;;;;;4979745;28;20490;-70
2023/05/13 00:52:41;;;;;;;8.70;5.45;;;8.70;99.90;;;;;;4991122;28;20137;-70
2023/05/13 00:55:09;;;;;;;11.70;7.10;;;8.60;99.90;;;;;;4992917;28;20046;-70
2023/05/13 00:57:39;;;;;;;9.55;6.68;;;8.60;99.90;;;;;;4976273;28;20109;-70
2023/05/13 01:00:07;;;;;;;11.68;6.45;;;8.60;99.90;;;;;;5001393;28;20475;-70
2023/05/13 01:02:49;;;;;;;11.57;6.88;;;8.60;99.90;;;;;;4991536;28;20048;-68
2023/05/13 01:05:39;;;;;;;10.18;5.88;;;8.50;99.90;;;;;;4998943;28;20053;-69
2023/05/13 01:08:19;;;;;;;8.98;6.53;;;8.50;99.90;;;;;;4987016;28;20236;-70
2023/05/13 01:10:58;;;;;;;8.93;5.63;;;8.50;99.90;;;;;;4991124;28;20061;-71
2023/05/13 01:13:30;;;;;;;8.88;5.60;;;8.50;99.90;;;;;;5000533;28;20054;-70
2023/05/13 01:16:06;;;;;;;;;;;8.50;99.90;;;;;;4993030;28;20081;-71
2023/05/13 01:18:42;;;;;;;7.30;5.55;;;8.40;99.90;;;;;;4972391;28;19953;-70
2023/05/13 01:21:10;;;;;;;8.40;5.55;;;8.40;99.90;;;;;;4996573;28;20057;-70
2023/05/13 01:23:38;;;;;;;7.20;5.20;;;8.40;99.90;;;;;;4970099;28;20086;-70
2023/05/13 01:26:05;;;;;;;7.40;5.45;;;8.40;99.90;;;;;;4984873;28;20071;-70
2023/05/13 01:28:33;;;;;;;7.30;5.20;;;8.40;99.90;;;;;;4994605;28;20039;-70
2023/05/13 01:31:02;;;;;;;7.03;5.45;;;8.40;99.90;;;;;;4991296;28;20581;-70
2023/05/13 01:33:30;;;;;;;7.88;6.13;;;8.40;99.90;;;;;;4980802;28;20038;-71
2023/05/13 01:35:58;;;;;;;7.70;5.70;;;8.40;99.90;;;;;;4995615;28;20241;-70
2023/05/13 01:38:27;;;;;;;7.72;5.68;;;8.40;99.90;;;;;;4964312;28;20043;-70
2023/05/13 01:40:57;;;;;;;7.22;5.60;;;8.40;99.90;;;;;;4991136;28;20042;-71
2023/05/13 01:43:26;;;;;;;10.00;6.22;;;8.40;99.90;;;;;;4990903;28;20144;-70
2023/05/13 01:45:54;;;;;;;8.02;5.97;;;8.40;99.90;;;;;;4962004;28;20049;-70
2023/05/13 01:48:22;;;;;;;8.18;5.70;;;8.40;99.90;;;;;;4966256;28;20057;-70
2023/05/13 01:50:51;;;;;;;9.38;6.05;;;8.40;99.90;;;;;;4980361;28;20046;-70
2023/05/13 01:53:18;;;;;;;8.82;6.32;;;8.40;99.90;;;;;;4990837;28;20133;-68
2023/05/13 01:55:48;;;;;;;8.18;5.38;;;8.40;99.90;;;;;;4990814;28;20039;-71
2023/05/13 01:58:16;;;;;;;8.25;6.25;;;8.40;99.90;;;;;;4983351;28;20092;-70
2023/05/13 02:00:43;;;;;;;7.88;6.20;;;8.40;99.90;;;;;;5001960;28;20065;-70
2023/05/13 02:03:11;;;;;;;7.82;5.80;;;8.40;99.90;;;;;;4990486;28;20042;-70
2023/05/13 02:05:38;;;;;;;7.88;6.25;;;8.40;99.90;;;;;;4974153;28;20473;-70
2023/05/13 02:08:07;;;;;;;8.15;5.68;;;8.40;99.90;;;;;;4994617;28;20042;-70
2023/05/13 02:10:37;;;;;;;8.27;6.13;;;8.40;99.90;;;;;;4998804;28;20038;-70
2023/05/13 02:13:04;;;;;;;8.15;6.00;;;8.50;99.90;;;;;;4956638;28;20577;-70
2023/05/13 02:15:32;;;;;;;8.05;5.78;;;8.50;99.90;;;;;;4988150;28;20054;-71
2023/05/13 02:17:59;;;;;;;8.52;5.93;;;8.50;99.90;;;;;;4990339;28;20034;-70
2023/05/13 02:20:27;;;;;;;8.77;5.97;;;8.50;99.90;;;;;;4990291;28;20069;-70
2023/05/13 02:22:57;;;;;;;8.07;6.03;;;8.40;99.90;;;;;;4958528;28;20502;-71
2023/05/13 02:25:24;;;;;;;9.63;6.70;;;8.50;99.90;;;;;;4966411;28;20047;-71
2023/05/13 02:27:51;;;;;;;7.93;5.63;;;8.50;99.90;;;;;;4988590;28;20049;-70
2023/05/13 02:30:19;;;;;;;9.27;6.07;;;8.60;99.90;;;;;;4972768;28;20149;-70
2023/05/13 02:32:47;;;;;;;9.20;5.85;;;8.60;99.90;;;;;;4971715;28;20049;-71
2023/05/13 02:35:14;;;;;;;10.35;5.43;;;8.70;99.90;;;;;;4990852;28;20548;-70
2023/05/13 02:37:42;;;;;;;7.72;5.90;;;8.80;99.90;;;;;;4974548;28;20050;-71
2023/05/13 02:40:11;;;;;;;7.45;5.43;;;8.80;99.90;;;;;;4981944;28;20053;-70
2023/05/13 02:42:38;;;;;;;7.10;5.03;;;8.80;99.90;;;;;;4986982;28;20057;-70
2023/05/13 02:45:08;;;;;;;7.00;5.45;;;8.80;99.90;;;;;;4972498;28;20053;-70
2023/05/13 02:47:38;;;;;;;9.85;5.53;;;8.80;99.90;;;;;;4973922;28;20061;-70
2023/05/13 02:50:08;;;;;;;7.95;5.65;;;8.80;99.90;;;;;;4989988;28;20042;-70
2023/05/13 02:52:40;;;;;;;9.77;5.63;;;8.80;99.90;;;;;;4995363;28;20057;-70
2023/05/13 02:55:08;;;;;;;11.25;6.07;;;8.80;99.90;;;;;;4973059;28;20050;-69
2023/05/13 02:57:36;;;;;;;10.50;6.57;;;8.90;99.90;;;;;;4979281;28;20071;-68
2023/05/13 03:00:05;;;;;;;8.07;5.47;;;8.90;99.90;;;;;;4981684;28;20049;-70
2023/05/13 03:02:35;;;;;;;8.07;5.72;;;8.90;99.90;;;;;;4968579;28;20109;-70
2023/05/13 03:05:03;;;;;;;7.57;5.70;;;9.00;99.90;;;;;;4989586;28;20069;-70
2023/05/13 03:07:30;;;;;;;6.75;5.30;;;9.00;99.90;;;;;;4957062;28;20058;-71
2023/05/13 03:09:58;;;;;;;7.57;5.53;;;8.90;99.90;;;;;;4989277;28;20049;-69
2023/05/13 03:12:26;;;;;;;8.48;6.20;;;9.00;99.90;;;;;;4984022;28;20051;-69
2023/05/13 03:14:53;;;;;;;7.93;5.43;;;9.00;99.90;;;;;;4988790;28;20461;-70
2023/05/13 03:17:20;;;;;;;9.13;5.93;;;9.00;99.90;;;;;;4983951;28;20053;-70
2023/05/13 03:19:49;;;;;;;6.72;5.45;;;9.00;99.90;;;;;;4971617;28;20049;-69
2023/05/13 03:22:17;;;;;;;8.23;5.95;;;9.00;99.90;;;;;;4973111;28;20050;-70
2023/05/13 03:24:44;;;;;;;9.10;5.90;;;9.00;99.90;;;;;;4984155;28;20105;-70
2023/05/13 03:27:12;;;;;;;8.15;5.75;;;9.00;99.90;;;;;;4964260;28;20050;-70
2023/05/13 03:29:40;;;;;;;7.95;5.63;;;9.10;99.90;;;;;;4989221;28;20050;-70
2023/05/13 03:32:07;;;;;;;9.30;6.70;;;9.10;99.90;;;;;;4978791;28;20466;-70
2023/05/13 03:34:36;;;;;;;7.78;5.22;;;9.20;99.90;;;;;;4989063;28;20121;-71
2023/05/13 03:37:04;;;;;;;10.00;5.90;;;9.20;99.90;;;;;;4983835;28;20046;-70
2023/05/13 03:39:32;;;;;;;9.38;6.05;;;9.20;99.90;;;;;;4970111;28;20357;-70
2023/05/13 03:42:00;;;;;;;7.82;6.05;;;9.20;99.90;;;;;;4988954;28;20034;-69
2023/05/13 03:44:27;;;;;;;8.52;6.13;;;9.20;99.90;;;;;;4975850;28;20034;-69
2023/05/13 03:46:55;;;;;;;8.80;5.68;;;9.20;99.90;;;;;;4990826;28;20030;-69
2023/05/13 03:49:22;;;;;;;12.27;6.47;;;9.20;99.90;;;;;;4989173;28;20046;-69
2023/05/13 03:51:50;;;;;;;8.43;5.80;;;9.30;99.90;;;;;;4976241;28;20374;-69
2023/05/13 03:54:17;;;;;;;9.02;5.65;;;9.30;99.90;;;;;;4992301;28;20046;-69
2023/05/13 03:56:44;;;;;;;14.40;6.18;;;9.40;99.90;;;;;;4994460;28;20049;-69
2023/05/13 03:59:12;;;;;;;12.00;5.75;;;9.40;99.90;;;;;;4994645;28;20069;-68
2023/05/13 04:01:39;;;;;;;8.45;6.47;;;9.40;99.90;;;;;;5001460;28;20093;-70
2023/05/13 04:04:08;;;;;;;7.97;6.13;;;9.40;99.90;;;;;;4993615;28;20522;-70
2023/05/13 04:06:35;;;;;;;9.00;6.43;;;9.50;99.90;;;;;;4972127;28;20101;-70
2023/05/13 04:09:03;;;;;;;9.32;6.00;;;9.50;99.90;;;;;;4990898;28;20057;-70
2023/05/13 04:11:31;;;;;;;7.72;5.90;;;9.50;99.90;;;;;;4991985;28;20422;-71
2023/05/13 04:13:58;;;;;;;6.18;5.18;;;9.60;99.90;;;;;;4959241;28;20490;-70
2023/05/13 04:16:26;;;;;;;8.68;6.30;;;9.60;99.90;;;;;;4992587;28;20035;-70
2023/05/13 04:18:54;;;;;;;7.90;5.47;;;9.70;99.90;;;;;;4991412;28;20034;-70
2023/05/13 04:21:21;;;;;;;8.05;5.72;;;9.80;99.90;;;;;;4974359;28;20050;-70
2023/05/13 04:23:48;;;;;;;7.28;5.45;;;9.80;99.90;;;;;;4993360;28;20129;-70
2023/05/13 04:26:17;;;;;;;9.18;6.15;;;9.90;99.90;;;;;;4991068;28;20050;-70
2023/05/13 04:28:45;;;;;;;12.35;7.35;;;9.90;99.90;;;;;;4972820;28;20054;-68
2023/05/13 04:31:12;;;;;;;9.43;6.18;;;10.00;99.90;;;;;;4985614;28;20054;-70
2023/05/13 04:33:40;;;;;;;9.65;6.13;;;10.10;99.90;;;;;;4998070;28;20414;-70
2023/05/13 04:36:07;;;;;;;13.20;6.00;;;10.20;99.90;;;;;;4975469;28;20392;-70
2023/05/13 04:38:35;;;;;;;8.02;5.47;;;10.20;99.90;;;;;;4993617;28;20038;-70
2023/05/13 04:41:03;;;;;;;8.88;5.47;;;10.30;99.90;;;;;;4974957;28;20078;-70
2023/05/13 04:43:39;;;;;;;7.22;5.70;;;10.40;99.90;;;;;;4989488;28;20039;-70
2023/05/13 04:46:06;;;;;;;7.38;5.35;;;10.50;99.90;;;;;;4975407;28;20104;-70
2023/05/13 04:48:34;;;;;;;7.70;5.40;;;10.60;99.90;;;;;;4990416;28;20042;-71
2023/05/13 04:51:02;;;;;;;7.13;5.38;;;10.70;99.90;;;;;;4988079;28;20175;-70
2023/05/13 04:53:30;;;;;;;6.32;4.93;;;10.70;99.90;;;;;;4988344;28;20053;-71
2023/05/13 04:56:01;;;;;;;6.38;4.63;;;10.80;99.90;;;;;;4984348;28;20121;-70
2023/05/13 04:58:29;;;;;;;7.60;5.93;;;10.90;99.90;;;;;;4982951;28;20047;-70
2023/05/13 05:00:56;;;;;;;8.23;6.32;;;11.00;99.90;;;;;;4968509;28;20047;-70
2023/05/13 05:03:24;;;;;;;8.10;5.22;;;11.10;99.90;;;;;;4971002;28;20351;-70
2023/05/13 05:05:53;;;;;;;8.00;5.53;;;11.20;99.90;;;;;;4974693;28;20046;-70
2023/05/13 05:08:21;;;;;;;8.18;4.72;;;11.30;99.90;;;;;;4992741;28;20057;-70
2023/05/13 05:10:50;;;;;;;8.20;5.32;;;11.40;99.90;;;;;;4975440;28;20052;-70
2023/05/13 05:13:18;;;;;;;7.20;5.20;;;11.50;99.90;;;;;;4989132;28;20501;-70
2023/05/13 05:15:45;;;;;;;9.80;5.30;;;11.50;99.90;;;;;;4989097;28;20031;-70
2023/05/13 05:18:13;;;;;;;6.13;4.70;;;11.60;99.90;;;;;;4993704;28;20046;-70
2023/05/13 05:20:44;;;;;;;7.60;4.90;;;11.60;99.90;;;;;;4988435;28;20066;-70
2023/05/13 05:23:16;;;;;;;6.55;4.85;;;11.70;99.90;;;;;;4981016;28;20434;-70
2023/05/13 05:25:44;;;;;;;6.25;4.90;;;11.80;99.90;;;;;;4974035;28;20121;-70
2023/05/13 05:28:12;;;;;;;6.20;5.00;;;11.80;99.90;;;;;;5005270;28;20046;-70
2023/05/13 05:30:42;;;;;;;8.80;5.60;;;11.80;99.90;;;;;;4975015;28;20053;-69
2023/05/13 05:33:19;;;;;;;7.28;5.78;;;11.80;99.90;;;;;;4989195;28;20050;-71
2023/05/13 05:35:47;;;;;;;9.98;7.05;;;11.90;99.90;;;;;;4998437;28;20148;-71
2023/05/13 05:38:16;;;;;;;9.30;5.82;;;12.00;99.90;;;;;;4977536;28;20525;-69
2023/05/13 05:40:45;;;;;;;8.68;6.38;;;12.00;99.90;;;;;;4978471;28;20038;-70
2023/05/13 05:43:15;;;;;;;7.85;5.57;;;12.10;99.90;;;;;;4987074;28;20510;-71
2023/05/13 05:45:42;;;;;;;8.40;5.30;;;12.20;99.90;;;;;;4984514;28;20053;-70
2023/05/13 05:48:14;;;;;;;6.95;5.22;;;12.30;99.90;;;;;;4960657;28;20144;-71
2023/05/13 05:50:42;;;;;;;7.80;5.15;;;12.40;99.90;;;;;;4987794;28;20046;-70
2023/05/13 05:53:14;;;;;;;7.00;5.15;;;12.50;99.90;;;;;;4984577;28;20125;-70
2023/05/13 05:55:41;;;;;;;8.23;5.43;;;12.60;99.90;;;;;;4985179;28;20069;-68
2023/05/13 05:58:13;;;;;;;6.88;5.03;;;12.70;99.90;;;;;;4992518;28;20097;-69
2023/05/13 06:00:40;;;;;;;13.05;5.63;;;12.80;99.90;;;;;;4974309;28;20049;-69
2023/05/13 06:03:08;;;;;;;7.30;5.13;;;12.90;99.90;;;;;;4999532;28;20050;-70
2023/05/13 06:05:37;;;;;;;6.22;5.03;;;13.00;99.90;;;;;;4994885;28;20439;-70
2023/05/13 06:08:04;;;;;;;9.60;5.35;;;13.00;99.90;;;;;;4983713;28;20060;-70
2023/05/13 06:10:31;;;;;;;9.48;5.32;;;13.10;99.90;;;;;;4986379;28;20051;-70
2023/05/13 06:12:59;;;;;;;8.18;5.50;;;13.20;99.90;;;;;;4991270;28;20501;-70
2023/05/13 06:15:28;;;;;;;8.73;5.32;;;13.30;99.90;;;;;;4983643;28;20805;-70
2023/05/13 06:17:56;;;;;;;9.27;5.28;;;13.30;99.90;;;;;;4993189;28;20034;-70
2023/05/13 06:20:24;;;;;;;7.13;4.90;;;13.50;99.90;;;;;;4983567;28;20596;-70
2023/05/13 06:22:51;;;;;;;7.32;4.90;;;13.60;99.90;;;;;;4982122;28;20059;-70
2023/05/13 06:25:19;;;;;;;8.35;5.45;;;13.70;99.90;;;;;;4991944;28;20125;-70
2023/05/13 06:27:46;;;;;;;14.88;5.97;;;13.70;99.90;;;;;;4991586;28;20101;-70
2023/05/13 06:30:13;;;;;;;6.63;4.57;;;13.90;99.90;;;;;;4989440;28;20054;-71
2023/05/13 06:32:42;;;;;;;6.65;5.30;;;13.90;99.90;;;;;;4988982;28;20103;-70
2023/05/13 06:35:23;;;;;;;7.22;5.05;;;13.90;99.90;;;;;;4989474;28;20046;-69
2023/05/13 06:37:51;;;;;;;7.03;4.90;;;13.90;99.90;;;;;;4972441;28;20129;-69
2023/05/13 06:40:18;;;;;;;7.40;5.10;;;14.00;99.90;;;;;;4988778;28;20088;-70
2023/05/13 06:42:46;;;;;;;6.53;5.00;;;14.00;99.90;;;;;;4988375;28;20046;-69
2023/05/13 06:45:22;;;;;;;7.53;5.18;;;14.00;99.90;;;;;;4970934;28;20058;-69
2023/05/13 06:47:50;;;;;;;7.40;5.47;;;14.20;99.90;;;;;;5004725;28;20417;-69
2023/05/13 06:50:19;;;;;;;10.13;5.05;;;14.20;99.90;;;;;;4989593;28;20038;-69
2023/05/13 06:52:47;;;;;;;5.43;4.85;;;14.00;99.90;;;;;;4987680;28;20535;-70
2023/05/13 06:55:15;;;;;;;11.98;5.35;;;14.00;99.90;;;;;;4985664;28;20277;-70
2023/05/13 06:57:46;;;;;;;6.68;4.75;;;14.00;99.90;;;;;;5000642;28;20053;-70
2023/05/13 07:00:14;;;;;;;6.50;5.00;;;14.20;99.90;;;;;;5006326;28;20045;-70
2023/05/13 07:02:42;;;;;;;6.03;4.95;;;14.20;99.90;;;;;;4980098;28;20049;-70
2023/05/13 07:05:10;;;;;;;5.93;4.60;;;14.10;99.90;;;;;;4993080;28;20050;-72
2023/05/13 07:07:38;;;;;;;6.88;4.63;;;14.00;99.90;;;;;;4970613;28;20046;-73
2023/05/13 07:10:06;;;;;;;6.78;5.03;;;14.20;99.90;;;;;;4962860;28;20477;-70
2023/05/13 07:12:34;;;;;;;7.40;5.07;;;14.20;99.90;;;;;;4986869;28;20050;-71
2023/05/13 07:15:01;;;;;;;6.18;4.82;;;14.30;99.90;;;;;;4997138;28;20045;-70
2023/05/13 07:17:30;;;;;;;7.25;5.00;;;14.40;99.90;;;;;;4990400;28;20074;-71
2023/05/13 07:19:58;;;;;;;5.97;4.72;;;14.40;99.90;;;;;;4994941;28;20108;-70
2023/05/13 07:22:26;;;;;;;5.80;4.90;;;14.50;99.90;;;;;;4993845;28;20320;-70
2023/05/13 07:24:54;;;;;;;7.30;5.10;;;14.60;99.90;;;;;;4974265;28;20286;-71
2023/05/13 07:27:22;;;;;;;9.63;5.15;;;14.60;99.90;;;;;;4987600;28;20052;-70
2023/05/13 07:29:49;;;;;;;6.75;4.75;;;14.60;99.90;;;;;;4984231;28;20585;-71
2023/05/13 07:32:17;;;;;;;7.15;5.28;;;14.70;99.90;;;;;;4997605;28;20051;-71
2023/05/13 07:34:44;;;;;;;6.38;4.93;;;14.60;99.90;;;;;;5000663;28;20077;-70
2023/05/13 07:37:13;;;;;;;7.25;5.00;;;14.60;99.90;;;;;;4993117;28;20049;-70
2023/05/13 07:39:40;;;;;;;6.60;4.90;;;14.50;99.90;;;;;;4992189;28;20047;-70
2023/05/13 07:42:08;;;;;;;9.05;5.85;;;14.40;99.90;;;;;;4990012;28;20053;-71
2023/05/13 07:44:35;;;;;;;8.35;6.15;;;14.40;99.90;;;;;;4990756;28;20436;-70
2023/05/13 07:47:02;;;;;;;8.75;5.75;;;14.50;99.90;;;;;;4990199;28;20065;-71
2023/05/13 07:49:30;;;;;;;7.18;5.63;;;14.50;99.90;;;;;;4983023;28;20082;-73
2023/05/13 07:51:57;;;;;;;8.63;5.88;;;14.50;99.90;;;;;;4982731;28;20038;-71
2023/05/13 07:54:25;;;;;;;7.95;5.97;;;14.60;99.90;;;;;;4985988;28;20597;-70
2023/05/13 07:56:52;;;;;;;6.90;5.53;;;14.50;99.90;;;;;;4987498;28;20057;-72
2023/05/13 07:59:19;;;;;;;13.80;9.07;;;14.60;99.90;;;;;;4977989;28;20566;-72
2023/05/13 08:01:47;;;;;;;8.15;5.35;;;14.40;99.90;;;;;;4984707;28;20074;-71
2023/05/13 08:04:17;;;;;;;8.30;5.38;;;14.50;99.90;;;;;;4992976;28;20433;-70
2023/05/13 08:06:45;;;;;;;5.45;4.60;;;14.40;99.90;;;;;;4999091;28;20058;-70
2023/05/13 08:09:13;;;;;;;9.00;6.95;;;14.50;99.90;;;;;;4989997;28;20513;-70
2023/05/13 08:11:41;;;;;;;7.63;5.88;;;14.50;99.90;;;;;;4988622;28;20117;-71
2023/05/13 08:14:09;;;;;;;8.82;5.65;;;14.50;99.90;;;;;;4984348;28;20042;-69
2023/05/13 08:16:36;;;;;;;9.70;6.70;;;14.70;99.90;;;;;;4977879;28;20047;-71
2023/05/13 08:19:04;;;;;;;8.30;6.18;;;14.80;99.90;;;;;;4990476;28;20506;-70
2023/05/13 08:21:31;;;;;;;6.13;5.03;;;14.90;99.90;;;;;;4995990;28;20068;-70
2023/05/13 08:23:59;;;;;;;10.23;7.05;;;14.90;99.90;;;;;;4991159;28;20046;-70
2023/05/13 08:26:26;;;;;;;8.80;6.32;;;15.00;99.90;;;;;;4998418;28;20046;-70
2023/05/13 08:28:53;;;;;;;8.98;5.90;;;15.00;99.90;;;;;;4992620;28;20368;-70
2023/05/13 08:31:23;;;;;;;7.72;5.78;;;15.20;99.90;;;;;;5004496;28;20034;-69
2023/05/13 08:33:54;;;;;;;8.90;5.93;;;15.20;99.90;;;;;;5005198;28;20053;-68
2023/05/13 08:36:22;;;;;;;6.85;5.30;;;15.10;99.90;;;;;;4994930;28;20082;-71
2023/05/13 08:38:49;;;;;;;7.30;5.50;;;15.10;99.90;;;;;;4999360;28;20064;-70
2023/05/13 08:41:17;;;;;;;10.02;5.18;;;15.00;99.90;;;;;;4984507;28;20054;-71
2023/05/13 08:44:12;;;;;;;7.85;5.28;;;15.00;99.90;;;;;;4999202;28;20128;-70
2023/05/13 08:46:42;;;;;;;8.07;5.70;;;14.90;99.90;;;;;;4989891;28;20150;-69
2023/05/13 08:49:10;;;;;;;5.57;4.63;;;15.00;99.90;;;;;;4991459;28;20541;-70
2023/05/13 08:51:37;;;;;;;6.03;4.93;;;15.00;99.90;;;;;;4994726;28;20043;-71
2023/05/13 08:54:08;;;;;;;5.20;4.70;;;15.20;99.90;;;;;;5002363;28;20441;-70
2023/05/13 08:56:36;;;;;;;6.22;4.45;;;15.30;99.90;;;;;;4986429;28;20046;-69
2023/05/13 08:59:03;;;;;;;7.35;5.05;;;15.40;99.90;;;;;;4991498;28;20042;-68
2023/05/13 09:01:31;;;;;;;5.50;4.90;;;15.50;99.90;;;;;;4993142;28;20495;-70
2023/05/13 09:04:09;;;;;;;6.10;4.90;;;15.30;99.90;;;;;;4983947;28;20498;-70
2023/05/13 09:06:36;;;;;;;7.63;6.20;;;15.40;99.90;;;;;;4988284;28;20050;-70
2023/05/13 09:09:04;;;;;;;7.80;6.10;;;15.70;99.90;;;;;;4992965;28;20046;-70
2023/05/13 09:11:32;;;;;;;6.28;5.32;;;16.00;99.90;;;;;;4974683;28;20064;-69
2023/05/13 09:14:06;;;;;;;8.00;5.63;;;16.00;99.90;;;;;;4984220;28;20050;-69
2023/05/13 09:16:35;;;;;;;8.30;4.90;;;16.30;99.90;;;;;;4975253;28;20105;-70
2023/05/13 09:19:04;;;;;;;6.30;5.05;;;16.50;99.90;;;;;;5000171;28;20087;-68
2023/05/13 09:21:34;;;;;;;7.70;5.10;;;16.60;99.90;;;;;;4987888;28;20046;-69
2023/05/13 09:24:08;;;;;;;9.70;6.05;;;16.70;99.90;;;;;;4993290;28;20101;-69
2023/05/13 09:26:38;;;;;;;6.20;4.70;;;16.80;99.90;;;;;;4987740;28;20137;-70
2023/05/13 09:29:25;;;;;;;5.57;4.40;;;16.70;99.90;;;;;;4988481;28;20514;-69
2023/05/13 09:31:54;;;;;;;6.18;5.25;;;16.70;99.90;;;;;;4985248;28;20065;-71
2023/05/13 09:34:28;;;;;;;7.32;4.70;;;16.70;99.90;;;;;;4980243;28;20051;-69
2023/05/13 09:36:56;;;;;;;5.10;4.22;;;16.60;99.90;;;;;;4984764;28;20407;-68
2023/05/13 09:39:24;;;;;;;6.22;4.40;;;16.50;99.90;;;;;;4981755;28;20039;-69
2023/05/13 09:41:52;;;;;;;5.30;4.80;;;16.60;99.90;;;;;;4984993;28;20046;-69
2023/05/13 09:44:21;;;;;;;5.50;4.47;;;16.60;99.90;;;;;;4986307;28;20049;-71
2023/05/13 09:46:51;;;;;;;7.68;5.28;;;16.50;99.90;;;;;;4983738;28;20983;-68
2023/05/13 09:49:27;;;;;;;5.00;4.50;;;16.40;99.90;;;;;;4980547;28;20101;-69
2023/05/13 09:51:54;;;;;;;6.25;5.07;;;16.10;99.90;;;;;;4986237;28;20043;-68
2023/05/13 09:54:22;;;;;;;11.68;6.88;;;16.00;99.90;;;;;;4987058;28;20060;-69
2023/05/13 09:56:56;;;;;;;6.53;4.82;;;16.00;99.90;;;;;;4987306;28;20166;-69
2023/05/13 09:59:24;;;;;;;12.40;8.25;;;16.10;99.90;;;;;;4984027;28;20050;-68
2023/05/13 10:01:54;;;;;;;6.40;4.82;;;16.20;99.90;;;;;;4983038;28;20583;-70
2023/05/13 10:04:22;;;;;;;6.47;4.38;;;16.10;99.90;;;;;;4988414;28;20034;-69
2023/05/13 10:06:50;;;;;;;5.88;4.60;;;16.00;99.90;;;;;;4975496;28;20149;-69
2023/05/13 10:09:19;;;;;;;5.78;4.97;;;15.80;99.90;;;;;;4986667;28;20136;-69
2023/05/13 10:11:47;;;;;;;5.63;4.72;;;15.60;99.90;;;;;;4989788;28;20053;-68
2023/05/13 10:14:15;;;;;;;8.77;4.57;;;15.60;99.90;;;;;;4984701;28;20050;-70
2023/05/13 10:16:45;;;;;;;6.35;4.15;;;15.40;99.90;;;;;;4985495;28;20110;-70
2023/05/13 10:19:13;;;;;;;5.72;4.60;;;15.20;99.90;;;;;;4983309;28;20050;-70
2023/05/13 10:21:41;;;;;;;8.70;5.38;;;15.20;99.90;;;;;;4981704;28;20035;-69
2023/05/13 10:24:08;;;;;;;4.55;3.60;;;15.10;99.90;;;;;;4995814;28;20058;-69
2023/05/13 10:26:36;;;;;;;4.70;4.20;;;15.20;99.90;;;;;;4990376;28;20570;-66
2023/05/13 10:29:04;;;;;;;6.25;4.90;;;15.10;99.90;;;;;;4992214;28;20061;-71
2023/05/13 10:31:33;;;;;;;7.38;4.45;;;15.20;99.90;;;;;;4969710;28;20051;-71
2023/05/13 10:34:03;;;;;;;7.47;4.17;;;15.10;99.90;;;;;;4991633;28;20042;-71
2023/05/13 10:36:40;;;;;;;7.00;4.90;;;15.10;99.90;;;;;;4985122;28;20050;-70
2023/05/13 10:39:23;;;;;;;5.53;3.92;;;15.20;99.90;;;;;;4973728;28;20058;-69
2023/05/13 10:42:09;;;;;;;5.50;3.90;;;15.50;99.90;;;;;;4985417;28;20529;-72
2023/05/13 10:44:36;;;;;;;5.53;4.45;;;15.80;99.90;;;;;;4993205;28;20042;-69
2023/05/13 10:47:04;;;;;;;4.80;4.10;;;16.10;99.90;;;;;;4985937;28;20513;-69
2023/05/13 10:49:36;;;;;;;4.47;4.05;;;16.30;99.90;;;;;;4990671;28;20567;-69
2023/05/13 10:52:04;;;;;;;;;;;16.50;99.90;;;;;;4985421;28;20422;-68
2023/05/13 10:54:38;;;;;;;4.85;4.10;;;16.70;99.90;;;;;;4990156;28;19925;-69
2023/05/13 10:57:06;;;;;;;5.40;4.43;;;16.90;99.90;;;;;;4990899;28;20054;-70
2023/05/13 10:59:36;;;;;;;4.97;3.92;;;17.10;99.90;;;;;;4974826;28;20061;-67
2023/05/13 11:02:23;;;;;;;5.55;3.65;;;17.00;99.90;;;;;;4975504;28;20042;-68
2023/05/13 11:05:01;;;;;;;5.07;4.07;;;17.00;99.90;;;;;;4990346;28;20042;-70
2023/05/13 11:07:29;;;;;;;5.97;3.42;;;16.80;99.90;;;;;;4990294;28;20137;-69
2023/05/13 11:09:58;;;;;;;5.55;3.60;;;17.10;99.90;;;;;;4996998;28;20054;-70
2023/05/13 11:12:26;;;;;;;4.70;4.20;;;17.10;99.90;;;;;;4972056;28;20050;-68
2023/05/13 11:14:57;;;;;;;5.25;4.03;;;17.40;99.90;;;;;;4989218;28;20050;-69
2023/05/13 11:17:30;;;;;;;5.32;4.18;;;17.80;99.90;;;;;;4988233;28;20049;-71
2023/05/13 11:19:58;;;;;;;6.45;4.13;;;18.20;99.90;;;;;;4986973;28;20043;-69
2023/05/13 11:22:28;;;;;;;5.40;3.97;;;18.60;99.90;;;;;;4990583;28;20042;-68
2023/05/13 11:25:09;;;;;;;4.35;3.78;;;19.00;99.90;;;;;;4975074;28;20045;-70
2023/05/13 11:27:41;;;;;;;6.10;4.50;;;19.30;99.90;;;;;;4992679;28;20157;-68
2023/05/13 11:30:29;;;;;;;5.38;3.83;;;19.00;99.90;;;;;;4981623;28;20047;-69
2023/05/13 11:32:57;;;;;;;4.78;4.18;;;19.20;99.90;;;;;;4989759;28;20046;-68
2023/05/13 11:35:30;;;;;;;7.20;4.22;;;18.90;99.90;;;;;;4987371;28;20822;-68
2023/05/13 11:37:59;;;;;;;7.65;4.68;;;18.80;99.90;;;;;;4988350;28;20038;-68
2023/05/13 11:40:30;;;;;;;5.78;4.20;;;18.30;99.90;;;;;;4966659;28;20062;-69
2023/05/13 11:42:58;;;;;;;4.82;4.20;;;18.40;99.90;;;;;;4991883;28;20046;-70
2023/05/13 11:45:27;;;;;;;5.25;3.90;;;18.50;99.90;;;;;;4969238;28;20054;-69
2023/05/13 11:47:57;;;;;;;4.57;3.70;;;18.60;99.90;;;;;;4991052;28;20453;-69
2023/05/13 11:50:29;;;;;;;4.38;3.95;;;18.60;99.90;;;;;;4983861;28;20446;-67
2023/05/13 11:52:58;;;;;;;7.60;4.28;;;18.90;99.90;;;;;;4989688;28;20077;-69
2023/05/13 11:55:35;;;;;;;5.57;3.90;;;19.00;99.90;;;;;;4973418;28;20656;-69
2023/05/13 11:58:02;;;;;;;4.75;4.25;;;19.10;99.90;;;;;;4984861;28;20046;-70
2023/05/13 12:00:33;;;;;;;5.50;3.80;;;19.60;99.90;;;;;;4988811;28;20042;-70
2023/05/13 12:03:09;;;;;;;6.53;4.70;;;20.00;99.90;;;;;;4990015;28;20046;-69
2023/05/13 12:05:38;;;;;;;5.40;4.65;;;20.00;99.90;;;;;;4993377;28;20050;-70
2023/05/13 12:08:08;;;;;;;5.10;4.60;;;20.00;99.90;;;;;;4993199;28;20054;-69
2023/05/13 12:10:42;;;;;;;5.28;4.75;;;19.60;99.90;;;;;;4992027;28;20046;-69
2023/05/13 12:13:10;;;;;;;8.13;4.47;;;19.10;99.90;;;;;;4975921;28;20078;-70
2023/05/13 12:15:37;;;;;;;4.63;4.13;;;18.80;99.90;;;;;;4986226;28;20540;-70
2023/05/13 12:18:06;;;;;;;5.60;4.07;;;18.50;99.90;;;;;;4993469;28;20053;-69
2023/05/13 12:20:34;;;;;;;4.72;4.25;;;18.40;99.90;;;;;;4984563;28;20069;-70
2023/05/13 12:23:03;;;;;;;4.80;3.97;;;18.50;99.90;;;;;;4995752;28;20046;-70
2023/05/13 12:25:39;;;;;;;5.15;4.53;;;18.70;99.90;;;;;;4989699;28;20043;-70
2023/05/13 12:28:09;;;;;;;4.93;4.32;;;18.70;99.90;;;;;;4990030;28;20066;-68
2023/05/13 12:30:42;;;;;;;5.57;4.13;;;18.90;99.90;;;;;;4988906;28;20153;-68
2023/05/13 12:33:17;;;;;;;6.60;4.15;;;18.90;99.90;;;;;;4991696;28;20054;-70
2023/05/13 12:35:47;;;;;;;5.47;3.70;;;18.90;99.90;;;;;;4992855;28;20073;-70
2023/05/13 12:38:19;;;;;;;4.25;3.72;;;18.90;99.90;;;;;;4974121;28;20050;-69
2023/05/13 12:40:47;;;;;;;4.70;4.00;;;18.90;99.90;;;;;;4985566;28;20038;-69
2023/05/13 12:43:16;;;;;;;5.70;3.90;;;18.80;99.90;;;;;;4990613;28;20125;-70
2023/05/13 12:45:46;;;;;;;5.22;4.28;;;18.70;99.90;;;;;;4991680;28;20422;-69
2023/05/13 12:48:13;;;;;;;4.82;3.83;;;18.60;99.90;;;;;;4997813;28;20528;-70
2023/05/13 12:50:40;;;;;;;4.57;3.90;;;18.60;99.90;;;;;;4991375;28;20125;-70
2023/05/13 12:53:08;;;;;;;5.13;4.60;;;18.40;99.90;;;;;;4993085;28;20049;-70
2023/05/13 12:55:38;;;;;;;8.88;7.03;;;18.50;99.90;;;;;;4987686;28;20054;-69
2023/05/13 12:58:09;;;;;;;4.65;4.25;;;18.50;99.90;;;;;;4990975;28;20498;-70
2023/05/13 13:00:37;;;;;;;5.53;4.43;;;18.60;99.90;;;;;;4988848;28;20046;-70